sensor_id;sensor_type;location;lat;lon;timestamp;temperature;humidity
54846;DHT22;53889;50.084;8.646;2023-06-14T00:00:13;21.60;54.70
54846;DHT22;53889;50.084;8.646;2023-06-14T00:02:40;21.60;54.70
54846;DHT22;53889;50.084;8.646;2023-06-14T00:05:09;21.60;54.80
54846;DHT22;53889;50.084;8.646;2023-06-14T00:07:39;21.50;54.90
54846;DHT22;53889;50.084;8.646;2023-06-14T00:10:08;21.40;55.00
54846;DHT22;53889;50.084;8.646;2023-06-14T00:12:35;21.40;55.20
54846;DHT22;53889;50.084;8.646;2023-06-14T00:15:03;21.50;55.30
54846;DHT22;53889;50.084;8.646;2023-06-14T00:17:30;21.50;55.40
54846;DHT22;53889;50.084;8.646;2023-06-14T00:19:57;21.50;55.40
54846;DHT22;53889;50.084;8.646;2023-06-14T00:22:25;21.50;55.50
54846;DHT22;53889;50.084;8.646;2023-06-14T00:24:54;21.40;55.70
54846;DHT22;53889;50.084;8.646;2023-06-14T00:27:21;21.40;55.70
54846;DHT22;53889;50.084;8.646;2023-06-14T00:29:48;21.40;55.50
54846;DHT22;53889;50.084;8.646;2023-06-14T00:32:15;21.50;55.70
54846;DHT22;53889;50.084;8.646;2023-06-14T00:34:41;21.30;55.80
54846;DHT22;53889;50.084;8.646;2023-06-14T00:37:08;21.30;55.90
54846;DHT22;53889;50.084;8.646;2023-06-14T00:39:36;21.20;56.00
54846;DHT22;53889;50.084;8.646;2023-06-14T00:42:03;21.20;56.00
54846;DHT22;53889;50.084;8.646;2023-06-14T00:44:30;21.00;56.00
54846;DHT22;53889;50.084;8.646;2023-06-14T00:46:57;21.00;56.30
54846;DHT22;53889;50.084;8.646;2023-06-14T00:49:24;21.00;56.30
54846;DHT22;53889;50.084;8.646;2023-06-14T00:51:51;21.10;56.30
54846;DHT22;53889;50.084;8.646;2023-06-14T00:54:18;20.90;56.30
54846;DHT22;53889;50.084;8.646;2023-06-14T00:56:46;20.80;56.60
54846;DHT22;53889;50.084;8.646;2023-06-14T00:59:13;20.70;56.70
54846;DHT22;53889;50.084;8.646;2023-06-14T01:01:40;20.80;56.70
54846;DHT22;53889;50.084;8.646;2023-06-14T01:04:08;20.70;56.70
54846;DHT22;53889;50.084;8.646;2023-06-14T01:06:40;20.70;56.90
54846;DHT22;53889;50.084;8.646;2023-06-14T01:09:17;20.70;56.80
54846;DHT22;53889;50.084;8.646;2023-06-14T01:11:54;20.60;56.80
54846;DHT22;53889;50.084;8.646;2023-06-14T01:14:22;20.50;57.00
54846;DHT22;53889;50.084;8.646;2023-06-14T01:16:52;20.40;57.10
54846;DHT22;53889;50.084;8.646;2023-06-14T01:19:22;20.50;57.30
54846;DHT22;53889;50.084;8.646;2023-06-14T01:21:51;20.40;57.30
54846;DHT22;53889;50.084;8.646;2023-06-14T01:24:19;20.50;57.20
54846;DHT22;53889;50.084;8.646;2023-06-14T01:26:53;20.40;57.20
54846;DHT22;53889;50.084;8.646;2023-06-14T01:29:22;20.50;57.30
54846;DHT22;53889;50.084;8.646;2023-06-14T01:31:53;20.40;57.30
54846;DHT22;53889;50.084;8.646;2023-06-14T01:34:20;20.30;57.50
54846;DHT22;53889;50.084;8.646;2023-06-14T01:36:52;20.30;57.50
54846;DHT22;53889;50.084;8.646;2023-06-14T01:39:22;20.30;57.60
54846;DHT22;53889;50.084;8.646;2023-06-14T01:41:50;20.20;57.70
54846;DHT22;53889;50.084;8.646;2023-06-14T01:44:19;20.20;57.70
54846;DHT22;53889;50.084;8.646;2023-06-14T01:46:46;20.20;57.90
54846;DHT22;53889;50.084;8.646;2023-06-14T01:49:13;20.10;58.20
54846;DHT22;53889;50.084;8.646;2023-06-14T01:51:40;20.20;58.30
54846;DHT22;53889;50.084;8.646;2023-06-14T01:54:08;19.90;58.70
54846;DHT22;53889;50.084;8.646;2023-06-14T01:56:36;19.80;58.90
54846;DHT22;53889;50.084;8.646;2023-06-14T01:59:03;19.80;59.10
54846;DHT22;53889;50.084;8.646;2023-06-14T02:01:29;19.90;59.00
54846;DHT22;53889;50.084;8.646;2023-06-14T02:03:56;19.80;59.40
54846;DHT22;53889;50.084;8.646;2023-06-14T02:06:26;19.90;59.20
54846;DHT22;53889;50.084;8.646;2023-06-14T02:08:53;20.80;59.90
54846;DHT22;53889;50.084;8.646;2023-06-14T02:11:20;22.40;60.90
54846;DHT22;53889;50.084;8.646;2023-06-14T02:13:48;19.70;59.50
54846;DHT22;53889;50.084;8.646;2023-06-14T02:16:14;19.70;59.50
54846;DHT22;53889;50.084;8.646;2023-06-14T02:18:42;19.80;59.50
54846;DHT22;53889;50.084;8.646;2023-06-14T02:21:09;19.80;59.30
54846;DHT22;53889;50.084;8.646;2023-06-14T02:23:36;19.80;59.40
54846;DHT22;53889;50.084;8.646;2023-06-14T02:26:02;19.80;59.30
54846;DHT22;53889;50.084;8.646;2023-06-14T02:28:29;19.90;60.00
54846;DHT22;53889;50.084;8.646;2023-06-14T02:30:57;19.50;60.00
54846;DHT22;53889;50.084;8.646;2023-06-14T02:33:24;19.20;60.50
54846;DHT22;53889;50.084;8.646;2023-06-14T02:35:52;19.30;60.80
54846;DHT22;53889;50.084;8.646;2023-06-14T02:38:19;19.30;60.80
54846;DHT22;53889;50.084;8.646;2023-06-14T02:40:47;19.40;60.70
54846;DHT22;53889;50.084;8.646;2023-06-14T02:43:14;19.40;60.90
54846;DHT22;53889;50.084;8.646;2023-06-14T02:45:43;19.40;60.80
54846;DHT22;53889;50.084;8.646;2023-06-14T02:48:11;19.80;61.10
54846;DHT22;53889;50.084;8.646;2023-06-14T02:50:39;19.60;60.80
54846;DHT22;53889;50.084;8.646;2023-06-14T02:53:05;19.40;60.70
54846;DHT22;53889;50.084;8.646;2023-06-14T02:55:33;19.50;60.90
54846;DHT22;53889;50.084;8.646;2023-06-14T02:58:04;19.40;60.70
54846;DHT22;53889;50.084;8.646;2023-06-14T03:00:31;19.40;60.90
54846;DHT22;53889;50.084;8.646;2023-06-14T03:02:58;19.20;61.20
54846;DHT22;53889;50.084;8.646;2023-06-14T03:05:28;19.00;61.50
54846;DHT22;53889;50.084;8.646;2023-06-14T03:07:55;19.00;61.50
54846;DHT22;53889;50.084;8.646;2023-06-14T03:10:22;19.00;61.50
54846;DHT22;53889;50.084;8.646;2023-06-14T03:12:50;19.00;61.60
54846;DHT22;53889;50.084;8.646;2023-06-14T03:15:20;19.00;61.70
54846;DHT22;53889;50.084;8.646;2023-06-14T03:17:49;19.00;61.70
54846;DHT22;53889;50.084;8.646;2023-06-14T03:20:16;19.00;61.60
54846;DHT22;53889;50.084;8.646;2023-06-14T03:22:47;18.90;61.60
54846;DHT22;53889;50.084;8.646;2023-06-14T03:25:14;18.80;61.80
54846;DHT22;53889;50.084;8.646;2023-06-14T03:27:43;18.80;61.70
54846;DHT22;53889;50.084;8.646;2023-06-14T03:30:10;18.80;61.70
54846;DHT22;53889;50.084;8.646;2023-06-14T03:32:37;18.90;61.70
54846;DHT22;53889;50.084;8.646;2023-06-14T03:35:06;18.90;61.90
54846;DHT22;53889;50.084;8.646;2023-06-14T03:37:33;18.90;61.90
54846;DHT22;53889;50.084;8.646;2023-06-14T03:40:01;18.80;62.30
54846;DHT22;53889;50.084;8.646;2023-06-14T03:42:34;18.90;62.30
54846;DHT22;53889;50.084;8.646;2023-06-14T03:45:01;18.60;62.50
54846;DHT22;53889;50.084;8.646;2023-06-14T03:47:27;18.60;62.50
54846;DHT22;53889;50.084;8.646;2023-06-14T03:49:55;18.50;63.00
54846;DHT22;53889;50.084;8.646;2023-06-14T03:52:22;19.20;63.40
54846;DHT22;53889;50.084;8.646;2023-06-14T03:54:49;18.50;63.20
54846;DHT22;53889;50.084;8.646;2023-06-14T03:57:19;18.50;63.20
54846;DHT22;53889;50.084;8.646;2023-06-14T03:59:48;18.60;63.20
54846;DHT22;53889;50.084;8.646;2023-06-14T04:02:16;18.70;63.20
54846;DHT22;53889;50.084;8.646;2023-06-14T04:04:44;18.70;63.10
54846;DHT22;53889;50.084;8.646;2023-06-14T04:07:11;18.70;63.00
54846;DHT22;53889;50.084;8.646;2023-06-14T04:09:38;18.70;63.20
54846;DHT22;53889;50.084;8.646;2023-06-14T04:12:06;18.60;63.70
54846;DHT22;53889;50.084;8.646;2023-06-14T04:14:35;18.70;63.70
54846;DHT22;53889;50.084;8.646;2023-06-14T04:17:02;18.70;63.50
54846;DHT22;53889;50.084;8.646;2023-06-14T04:19:29;18.40;64.00
54846;DHT22;53889;50.084;8.646;2023-06-14T04:21:58;18.40;64.20
54846;DHT22;53889;50.084;8.646;2023-06-14T04:24:26;18.60;64.10
54846;DHT22;53889;50.084;8.646;2023-06-14T04:26:58;18.60;64.00
54846;DHT22;53889;50.084;8.646;2023-06-14T04:29:27;18.80;63.60
54846;DHT22;53889;50.084;8.646;2023-06-14T04:32:00;19.00;63.30
54846;DHT22;53889;50.084;8.646;2023-06-14T04:34:28;19.20;62.60
54846;DHT22;53889;50.084;8.646;2023-06-14T04:36:57;19.30;62.60
54846;DHT22;53889;50.084;8.646;2023-06-14T04:39:34;19.50;61.90
54846;DHT22;53889;50.084;8.646;2023-06-14T04:42:02;19.50;62.00
54846;DHT22;53889;50.084;8.646;2023-06-14T04:44:29;19.50;62.00
54846;DHT22;53889;50.084;8.646;2023-06-14T04:47:01;19.60;61.80
54846;DHT22;53889;50.084;8.646;2023-06-14T04:49:28;19.60;61.60
54846;DHT22;53889;50.084;8.646;2023-06-14T04:51:56;19.70;61.60
54846;DHT22;53889;50.084;8.646;2023-06-14T04:54:26;20.00;61.20
54846;DHT22;53889;50.084;8.646;2023-06-14T04:56:54;20.20;60.30
54846;DHT22;53889;50.084;8.646;2023-06-14T04:59:23;20.50;59.60
54846;DHT22;53889;50.084;8.646;2023-06-14T05:01:51;20.70;59.90
54846;DHT22;53889;50.084;8.646;2023-06-14T05:04:20;20.90;59.30
54846;DHT22;53889;50.084;8.646;2023-06-14T05:06:47;21.30;58.50
54846;DHT22;53889;50.084;8.646;2023-06-14T05:09:15;21.50;58.70
54846;DHT22;53889;50.084;8.646;2023-06-14T05:11:43;21.60;57.90
54846;DHT22;53889;50.084;8.646;2023-06-14T05:14:11;21.80;57.50
54846;DHT22;53889;50.084;8.646;2023-06-14T05:16:38;22.40;56.70
54846;DHT22;53889;50.084;8.646;2023-06-14T05:19:05;22.50;56.40
54846;DHT22;53889;50.084;8.646;2023-06-14T05:21:34;22.70;55.90
54846;DHT22;53889;50.084;8.646;2023-06-14T05:24:01;22.90;55.50
54846;DHT22;53889;50.084;8.646;2023-06-14T05:26:27;23.20;55.60
54846;DHT22;53889;50.084;8.646;2023-06-14T05:28:55;22.70;55.90
54846;DHT22;53889;50.084;8.646;2023-06-14T05:31:22;22.60;56.30
54846;DHT22;53889;50.084;8.646;2023-06-14T05:33:49;22.90;56.10
54846;DHT22;53889;50.084;8.646;2023-06-14T05:36:16;23.60;55.30
54846;DHT22;53889;50.084;8.646;2023-06-14T05:38:45;23.90;54.40
54846;DHT22;53889;50.084;8.646;2023-06-14T05:41:12;24.00;54.30
54846;DHT22;53889;50.084;8.646;2023-06-14T05:43:39;24.30;53.80
54846;DHT22;53889;50.084;8.646;2023-06-14T05:46:06;24.30;53.90
54846;DHT22;53889;50.084;8.646;2023-06-14T05:48:33;24.00;54.30
54846;DHT22;53889;50.084;8.646;2023-06-14T05:50:59;24.00;54.80
54846;DHT22;53889;50.084;8.646;2023-06-14T05:53:26;23.50;54.80
54846;DHT22;53889;50.084;8.646;2023-06-14T05:55:54;23.70;55.00
54846;DHT22;53889;50.084;8.646;2023-06-14T05:58:21;24.20;53.90
54846;DHT22;53889;50.084;8.646;2023-06-14T06:00:48;24.50;53.70
54846;DHT22;53889;50.084;8.646;2023-06-14T06:03:15;24.30;53.30
54846;DHT22;53889;50.084;8.646;2023-06-14T06:05:42;24.00;54.30
54846;DHT22;53889;50.084;8.646;2023-06-14T06:08:09;22.30;57.60
54846;DHT22;53889;50.084;8.646;2023-06-14T06:10:36;22.90;57.20
54846;DHT22;53889;50.084;8.646;2023-06-14T06:13:04;22.80;57.10
54846;DHT22;53889;50.084;8.646;2023-06-14T06:15:31;22.20;58.10
54846;DHT22;53889;50.084;8.646;2023-06-14T06:17:57;22.40;59.00
54846;DHT22;53889;50.084;8.646;2023-06-14T06:20:24;22.30;58.10
54846;DHT22;53889;50.084;8.646;2023-06-14T06:22:55;22.80;58.60
54846;DHT22;53889;50.084;8.646;2023-06-14T06:25:22;23.60;56.80
54846;DHT22;53889;50.084;8.646;2023-06-14T06:27:51;23.60;55.30
54846;DHT22;53889;50.084;8.646;2023-06-14T06:30:19;22.70;56.80
54846;DHT22;53889;50.084;8.646;2023-06-14T06:32:46;23.40;56.10
54846;DHT22;53889;50.084;8.646;2023-06-14T06:35:14;24.10;54.90
54846;DHT22;53889;50.084;8.646;2023-06-14T06:37:41;24.30;54.30
54846;DHT22;53889;50.084;8.646;2023-06-14T06:40:09;24.50;54.70
54846;DHT22;53889;50.084;8.646;2023-06-14T06:42:38;24.50;53.80
54846;DHT22;53889;50.084;8.646;2023-06-14T06:45:06;24.70;54.10
54846;DHT22;53889;50.084;8.646;2023-06-14T06:47:34;25.10;53.50
54846;DHT22;53889;50.084;8.646;2023-06-14T06:50:01;25.30;53.20
54846;DHT22;53889;50.084;8.646;2023-06-14T06:52:28;25.30;52.90
54846;DHT22;53889;50.084;8.646;2023-06-14T06:54:55;25.50;52.70
54846;DHT22;53889;50.084;8.646;2023-06-14T06:57:22;25.70;51.70
54846;DHT22;53889;50.084;8.646;2023-06-14T06:59:49;24.90;53.10
54846;DHT22;53889;50.084;8.646;2023-06-14T07:02:16;24.90;53.20
54846;DHT22;53889;50.084;8.646;2023-06-14T07:04:44;25.40;53.20
54846;DHT22;53889;50.084;8.646;2023-06-14T07:07:11;25.80;52.90
54846;DHT22;53889;50.084;8.646;2023-06-14T07:09:37;26.00;52.10
54846;DHT22;53889;50.084;8.646;2023-06-14T07:12:05;26.40;51.60
54846;DHT22;53889;50.084;8.646;2023-06-14T07:14:32;26.70;50.90
54846;DHT22;53889;50.084;8.646;2023-06-14T07:16:59;26.80;51.20
54846;DHT22;53889;50.084;8.646;2023-06-14T07:19:26;27.40;50.40
54846;DHT22;53889;50.084;8.646;2023-06-14T07:21:54;27.70;50.20
54846;DHT22;53889;50.084;8.646;2023-06-14T07:24:22;27.60;49.30
54846;DHT22;53889;50.084;8.646;2023-06-14T07:26:48;28.30;50.20
54846;DHT22;53889;50.084;8.646;2023-06-14T07:29:15;26.50;49.90
54846;DHT22;53889;50.084;8.646;2023-06-14T07:31:42;27.20;49.70
54846;DHT22;53889;50.084;8.646;2023-06-14T07:34:09;27.40;48.90
54846;DHT22;53889;50.084;8.646;2023-06-14T07:36:36;28.00;48.50
54846;DHT22;53889;50.084;8.646;2023-06-14T07:39:05;28.60;48.10
54846;DHT22;53889;50.084;8.646;2023-06-14T07:41:32;28.80;46.70
54846;DHT22;53889;50.084;8.646;2023-06-14T07:43:59;28.40;47.20
54846;DHT22;53889;50.084;8.646;2023-06-14T07:46:26;28.20;47.70
54846;DHT22;53889;50.084;8.646;2023-06-14T07:48:52;28.20;47.40
54846;DHT22;53889;50.084;8.646;2023-06-14T07:51:19;28.40;47.40
54846;DHT22;53889;50.084;8.646;2023-06-14T07:53:48;28.50;47.80
54846;DHT22;53889;50.084;8.646;2023-06-14T07:56:16;28.70;46.90
54846;DHT22;53889;50.084;8.646;2023-06-14T07:58:42;28.80;47.20
54846;DHT22;53889;50.084;8.646;2023-06-14T08:01:09;29.30;47.30
54846;DHT22;53889;50.084;8.646;2023-06-14T08:03:37;28.80;46.30
54846;DHT22;53889;50.084;8.646;2023-06-14T08:06:03;29.80;46.20
54846;DHT22;53889;50.084;8.646;2023-06-14T08:08:31;29.40;46.40
54846;DHT22;53889;50.084;8.646;2023-06-14T08:10:58;29.80;46.00
54846;DHT22;53889;50.084;8.646;2023-06-14T08:13:26;29.50;46.50
54846;DHT22;53889;50.084;8.646;2023-06-14T08:15:53;29.70;46.80
54846;DHT22;53889;50.084;8.646;2023-06-14T08:18:20;29.10;47.00
54846;DHT22;53889;50.084;8.646;2023-06-14T08:20:47;29.20;47.40
54846;DHT22;53889;50.084;8.646;2023-06-14T08:23:14;29.30;47.10
54846;DHT22;53889;50.084;8.646;2023-06-14T08:25:44;29.50;47.20
54846;DHT22;53889;50.084;8.646;2023-06-14T08:28:11;29.50;47.30
54846;DHT22;53889;50.084;8.646;2023-06-14T08:30:39;29.70;46.80
54846;DHT22;53889;50.084;8.646;2023-06-14T08:33:06;29.40;47.50
54846;DHT22;53889;50.084;8.646;2023-06-14T08:35:32;28.90;46.60
54846;DHT22;53889;50.084;8.646;2023-06-14T08:38:02;28.70;47.80
54846;DHT22;53889;50.084;8.646;2023-06-14T08:40:30;28.90;47.00
54846;DHT22;53889;50.084;8.646;2023-06-14T08:42:57;28.60;47.90
54846;DHT22;53889;50.084;8.646;2023-06-14T08:45:24;28.90;47.30
54846;DHT22;53889;50.084;8.646;2023-06-14T08:47:53;29.10;46.60
54846;DHT22;53889;50.084;8.646;2023-06-14T08:50:23;30.20;46.00
54846;DHT22;53889;50.084;8.646;2023-06-14T08:52:54;29.80;45.80
54846;DHT22;53889;50.084;8.646;2023-06-14T08:55:23;30.00;45.50
54846;DHT22;53889;50.084;8.646;2023-06-14T08:57:54;30.80;45.10
54846;DHT22;53889;50.084;8.646;2023-06-14T09:00:22;30.30;44.50
54846;DHT22;53889;50.084;8.646;2023-06-14T09:02:50;30.20;44.70
54846;DHT22;53889;50.084;8.646;2023-06-14T09:05:23;29.10;45.60
54846;DHT22;53889;50.084;8.646;2023-06-14T09:07:49;29.50;46.50
54846;DHT22;53889;50.084;8.646;2023-06-14T09:10:16;28.70;46.20
54846;DHT22;53889;50.084;8.646;2023-06-14T09:12:43;28.40;47.10
54846;DHT22;53889;50.084;8.646;2023-06-14T09:15:10;28.60;47.40
54846;DHT22;53889;50.084;8.646;2023-06-14T09:17:37;29.10;46.70
54846;DHT22;53889;50.084;8.646;2023-06-14T09:20:06;29.70;45.90
54846;DHT22;53889;50.084;8.646;2023-06-14T09:22:37;30.50;45.10
54846;DHT22;53889;50.084;8.646;2023-06-14T09:25:04;30.90;44.50
54846;DHT22;53889;50.084;8.646;2023-06-14T09:27:31;30.40;44.50
54846;DHT22;53889;50.084;8.646;2023-06-14T09:29:58;29.80;44.40
54846;DHT22;53889;50.084;8.646;2023-06-14T09:32:25;30.00;44.70
54846;DHT22;53889;50.084;8.646;2023-06-14T09:34:52;30.50;45.00
54846;DHT22;53889;50.084;8.646;2023-06-14T09:37:27;30.70;43.80
54846;DHT22;53889;50.084;8.646;2023-06-14T09:39:56;31.60;44.20
54846;DHT22;53889;50.084;8.646;2023-06-14T09:42:24;31.70;43.60
54846;DHT22;53889;50.084;8.646;2023-06-14T09:44:52;31.50;42.90
54846;DHT22;53889;50.084;8.646;2023-06-14T09:47:20;31.30;43.40
54846;DHT22;53889;50.084;8.646;2023-06-14T09:49:47;31.30;43.30
54846;DHT22;53889;50.084;8.646;2023-06-14T09:52:15;29.80;44.40
54846;DHT22;53889;50.084;8.646;2023-06-14T09:54:43;28.80;45.40
54846;DHT22;53889;50.084;8.646;2023-06-14T09:57:16;29.40;45.80
54846;DHT22;53889;50.084;8.646;2023-06-14T09:59:45;30.20;44.80
54846;DHT22;53889;50.084;8.646;2023-06-14T10:02:21;30.90;43.90
54846;DHT22;53889;50.084;8.646;2023-06-14T10:04:56;31.50;43.30
54846;DHT22;53889;50.084;8.646;2023-06-14T10:07:26;31.50;43.90
54846;DHT22;53889;50.084;8.646;2023-06-14T10:09:57;31.40;43.20
54846;DHT22;53889;50.084;8.646;2023-06-14T10:12:26;31.70;43.30
54846;DHT22;53889;50.084;8.646;2023-06-14T10:14:53;31.60;43.50
54846;DHT22;53889;50.084;8.646;2023-06-14T10:17:27;32.00;42.70
54846;DHT22;53889;50.084;8.646;2023-06-14T10:20:06;32.40;41.70
54846;DHT22;53889;50.084;8.646;2023-06-14T10:22:44;31.20;42.10
54846;DHT22;53889;50.084;8.646;2023-06-14T10:25:26;31.10;42.30
54846;DHT22;53889;50.084;8.646;2023-06-14T10:28:02;30.80;43.40
54846;DHT22;53889;50.084;8.646;2023-06-14T10:30:29;31.00;42.40
54846;DHT22;53889;50.084;8.646;2023-06-14T10:33:03;31.30;42.20
54846;DHT22;53889;50.084;8.646;2023-06-14T10:35:30;30.80;42.90
54846;DHT22;53889;50.084;8.646;2023-06-14T10:38:06;30.00;44.00
54846;DHT22;53889;50.084;8.646;2023-06-14T10:40:34;29.50;44.30
54846;DHT22;53889;50.084;8.646;2023-06-14T10:43:21;29.00;45.60
54846;DHT22;53889;50.084;8.646;2023-06-14T10:46:17;29.10;45.60
54846;DHT22;53889;50.084;8.646;2023-06-14T10:48:44;28.90;45.50
54846;DHT22;53889;50.084;8.646;2023-06-14T10:51:18;29.80;44.20
54846;DHT22;53889;50.084;8.646;2023-06-14T10:53:46;30.40;43.70
54846;DHT22;53889;50.084;8.646;2023-06-14T10:56:26;31.10;43.10
54846;DHT22;53889;50.084;8.646;2023-06-14T10:58:55;30.20;43.70
54846;DHT22;53889;50.084;8.646;2023-06-14T11:01:31;30.20;44.70
54846;DHT22;53889;50.084;8.646;2023-06-14T11:04:07;30.40;44.30
54846;DHT22;53889;50.084;8.646;2023-06-14T11:06:45;30.70;43.80
54846;DHT22;53889;50.084;8.646;2023-06-14T11:09:47;31.40;43.10
54846;DHT22;53889;50.084;8.646;2023-06-14T11:12:17;31.00;44.10
54846;DHT22;53889;50.084;8.646;2023-06-14T11:14:47;32.00;43.60
54846;DHT22;53889;50.084;8.646;2023-06-14T11:17:14;31.90;42.70
54846;DHT22;53889;50.084;8.646;2023-06-14T11:19:40;31.10;43.30
54846;DHT22;53889;50.084;8.646;2023-06-14T11:22:07;29.60;44.30
54846;DHT22;53889;50.084;8.646;2023-06-14T11:24:34;28.90;44.90
54846;DHT22;53889;50.084;8.646;2023-06-14T11:27:01;28.10;46.50
54846;DHT22;53889;50.084;8.646;2023-06-14T11:29:29;28.10;46.90
54846;DHT22;53889;50.084;8.646;2023-06-14T11:31:57;28.20;46.30
54846;DHT22;53889;50.084;8.646;2023-06-14T11:34:25;28.30;46.30
54846;DHT22;53889;50.084;8.646;2023-06-14T11:36:52;27.60;46.40
54846;DHT22;53889;50.084;8.646;2023-06-14T11:39:24;27.80;46.10
54846;DHT22;53889;50.084;8.646;2023-06-14T11:41:51;28.20;45.60
54846;DHT22;53889;50.084;8.646;2023-06-14T11:44:18;27.70;46.60
54846;DHT22;53889;50.084;8.646;2023-06-14T11:46:45;27.60;47.10
54846;DHT22;53889;50.084;8.646;2023-06-14T11:49:13;28.70;45.70
54846;DHT22;53889;50.084;8.646;2023-06-14T11:51:39;29.80;44.40
54846;DHT22;53889;50.084;8.646;2023-06-14T11:54:08;30.70;43.10
54846;DHT22;53889;50.084;8.646;2023-06-14T11:56:36;31.20;42.50
54846;DHT22;53889;50.084;8.646;2023-06-14T11:59:04;31.40;42.20
54846;DHT22;53889;50.084;8.646;2023-06-14T12:01:31;31.80;41.80
54846;DHT22;53889;50.084;8.646;2023-06-14T12:03:59;31.80;41.50
54846;DHT22;53889;50.084;8.646;2023-06-14T12:06:28;31.40;41.80
54846;DHT22;53889;50.084;8.646;2023-06-14T12:08:58;30.90;41.70
54846;DHT22;53889;50.084;8.646;2023-06-14T12:11:31;29.90;42.70
54846;DHT22;53889;50.084;8.646;2023-06-14T12:13:58;28.70;43.80
54846;DHT22;53889;50.084;8.646;2023-06-14T12:16:30;29.90;45.50
54846;DHT22;53889;50.084;8.646;2023-06-14T12:19:00;28.60;44.30
54846;DHT22;53889;50.084;8.646;2023-06-14T12:21:29;29.40;43.50
54846;DHT22;53889;50.084;8.646;2023-06-14T12:23:55;29.10;43.30
54846;DHT22;53889;50.084;8.646;2023-06-14T12:26:24;29.20;43.50
54846;DHT22;53889;50.084;8.646;2023-06-14T12:28:53;28.10;44.70
54846;DHT22;53889;50.084;8.646;2023-06-14T12:31:20;28.00;45.40
54846;DHT22;53889;50.084;8.646;2023-06-14T12:33:47;28.10;45.40
54846;DHT22;53889;50.084;8.646;2023-06-14T12:36:15;27.90;46.20
54846;DHT22;53889;50.084;8.646;2023-06-14T12:38:44;27.40;45.60
54846;DHT22;53889;50.084;8.646;2023-06-14T12:41:11;26.90;46.50
54846;DHT22;53889;50.084;8.646;2023-06-14T12:43:39;26.70;47.00
54846;DHT22;53889;50.084;8.646;2023-06-14T12:46:06;26.80;47.20
54846;DHT22;53889;50.084;8.646;2023-06-14T12:48:33;27.30;46.30
54846;DHT22;53889;50.084;8.646;2023-06-14T12:51:00;28.10;45.60
54846;DHT22;53889;50.084;8.646;2023-06-14T12:53:27;29.10;44.80
54846;DHT22;53889;50.084;8.646;2023-06-14T12:55:55;29.60;43.30
54846;DHT22;53889;50.084;8.646;2023-06-14T12:58:21;29.60;43.40
54846;DHT22;53889;50.084;8.646;2023-06-14T13:00:49;29.50;42.50
54846;DHT22;53889;50.084;8.646;2023-06-14T13:03:16;30.10;43.10
54846;DHT22;53889;50.084;8.646;2023-06-14T13:05:42;30.70;42.10
54846;DHT22;53889;50.084;8.646;2023-06-14T13:08:09;29.80;41.60
54846;DHT22;53889;50.084;8.646;2023-06-14T13:10:36;29.30;41.70
54846;DHT22;53889;50.084;8.646;2023-06-14T13:13:04;29.60;43.30
54846;DHT22;53889;50.084;8.646;2023-06-14T13:15:33;27.80;43.70
54846;DHT22;53889;50.084;8.646;2023-06-14T13:17:59;27.10;44.80
54846;DHT22;53889;50.084;8.646;2023-06-14T13:20:27;27.30;45.40
54846;DHT22;53889;50.084;8.646;2023-06-14T13:22:54;27.70;45.40
54846;DHT22;53889;50.084;8.646;2023-06-14T13:25:21;28.00;44.70
54846;DHT22;53889;50.084;8.646;2023-06-14T13:27:48;27.00;45.10
54846;DHT22;53889;50.084;8.646;2023-06-14T13:30:16;27.30;45.80
54846;DHT22;53889;50.084;8.646;2023-06-14T13:32:42;27.20;45.50
54846;DHT22;53889;50.084;8.646;2023-06-14T13:35:09;27.00;46.00
54846;DHT22;53889;50.084;8.646;2023-06-14T13:37:36;27.00;45.80
54846;DHT22;53889;50.084;8.646;2023-06-14T13:40:03;27.10;45.90
54846;DHT22;53889;50.084;8.646;2023-06-14T13:42:31;27.00;45.50
54846;DHT22;53889;50.084;8.646;2023-06-14T13:44:58;26.90;45.70
54846;DHT22;53889;50.084;8.646;2023-06-14T13:47:26;26.60;45.90
54846;DHT22;53889;50.084;8.646;2023-06-14T13:49:53;26.60;46.50
54846;DHT22;53889;50.084;8.646;2023-06-14T13:52:20;26.60;45.50
54846;DHT22;53889;50.084;8.646;2023-06-14T13:54:47;26.20;46.60
54846;DHT22;53889;50.084;8.646;2023-06-14T13:57:14;26.40;46.50
54846;DHT22;53889;50.084;8.646;2023-06-14T13:59:41;26.60;46.20
54846;DHT22;53889;50.084;8.646;2023-06-14T14:02:09;26.70;46.50
54846;DHT22;53889;50.084;8.646;2023-06-14T14:04:37;27.00;46.20
54846;DHT22;53889;50.084;8.646;2023-06-14T14:07:05;26.70;46.80
54846;DHT22;53889;50.084;8.646;2023-06-14T14:09:33;26.70;47.20
54846;DHT22;53889;50.084;8.646;2023-06-14T14:12:00;26.60;47.10
54846;DHT22;53889;50.084;8.646;2023-06-14T14:14:27;26.70;46.70
54846;DHT22;53889;50.084;8.646;2023-06-14T14:16:54;26.30;46.90
54846;DHT22;53889;50.084;8.646;2023-06-14T14:19:20;26.10;47.70
54846;DHT22;53889;50.084;8.646;2023-06-14T14:21:48;26.10;48.00
54846;DHT22;53889;50.084;8.646;2023-06-14T14:24:15;26.20;47.90
54846;DHT22;53889;50.084;8.646;2023-06-14T14:26:42;26.10;48.00
54846;DHT22;53889;50.084;8.646;2023-06-14T14:29:09;26.10;48.40
54846;DHT22;53889;50.084;8.646;2023-06-14T14:31:37;26.30;48.20
54846;DHT22;53889;50.084;8.646;2023-06-14T14:34:03;26.40;47.50
54846;DHT22;53889;50.084;8.646;2023-06-14T14:36:30;26.30;48.00
54846;DHT22;53889;50.084;8.646;2023-06-14T14:39:00;26.30;48.40
54846;DHT22;53889;50.084;8.646;2023-06-14T14:41:27;26.60;48.30
54846;DHT22;53889;50.084;8.646;2023-06-14T14:43:54;26.00;47.60
54846;DHT22;53889;50.084;8.646;2023-06-14T14:46:21;26.20;48.60
54846;DHT22;53889;50.084;8.646;2023-06-14T14:48:47;25.90;48.30
54846;DHT22;53889;50.084;8.646;2023-06-14T14:51:14;26.00;48.40
54846;DHT22;53889;50.084;8.646;2023-06-14T14:53:41;26.00;48.80
54846;DHT22;53889;50.084;8.646;2023-06-14T14:56:09;26.10;48.90
54846;DHT22;53889;50.084;8.646;2023-06-14T14:58:37;26.00;49.00
54846;DHT22;53889;50.084;8.646;2023-06-14T15:01:04;25.80;49.50
54846;DHT22;53889;50.084;8.646;2023-06-14T15:03:31;25.80;48.90
54846;DHT22;53889;50.084;8.646;2023-06-14T15:05:58;25.90;48.60
54846;DHT22;53889;50.084;8.646;2023-06-14T15:08:24;26.30;48.80
54846;DHT22;53889;50.084;8.646;2023-06-14T15:10:51;26.50;47.80
54846;DHT22;53889;50.084;8.646;2023-06-14T15:13:20;26.60;47.40
54846;DHT22;53889;50.084;8.646;2023-06-14T15:15:48;26.60;46.90
54846;DHT22;53889;50.084;8.646;2023-06-14T15:18:15;26.60;46.80
54846;DHT22;53889;50.084;8.646;2023-06-14T15:20:42;26.30;46.90
54846;DHT22;53889;50.084;8.646;2023-06-14T15:23:09;26.20;46.90
54846;DHT22;53889;50.084;8.646;2023-06-14T15:25:36;26.00;47.40
54846;DHT22;53889;50.084;8.646;2023-06-14T15:28:03;26.00;47.70
54846;DHT22;53889;50.084;8.646;2023-06-14T15:30:33;25.90;47.90
54846;DHT22;53889;50.084;8.646;2023-06-14T15:33:00;25.90;47.50
54846;DHT22;53889;50.084;8.646;2023-06-14T15:35:27;26.10;47.90